createdAt,value
2018-06-30T00:01:24.079Z,47.04
2018-06-30T00:03:53.738Z,47.67
2018-06-30T00:06:24.826Z,47.28
2018-06-30T00:08:55.116Z,47.48
2018-06-30T00:11:24.848Z,47.99
2018-06-30T00:13:54.771Z,48.14
2018-06-30T00:16:24.542Z,48.74
2018-06-30T00:18:55.766Z,48.99
2018-06-30T00:21:26.205Z,47.40
2018-06-30T00:23:55.924Z,48.69
2018-06-30T00:26:25.688Z,48.69
2018-06-30T00:28:55.535Z,48.49
2018-06-30T00:31:24.861Z,49.00
2018-06-30T00:33:54.439Z,48.16
2018-06-30T00:36:24.148Z,49.81
2018-06-30T00:38:53.675Z,49.64
2018-06-30T00:41:23.727Z,49.50
2018-06-30T00:43:53.508Z,49.67
2018-06-30T00:46:22.812Z,50.56
2018-06-30T00:48:52.387Z,50.99
2018-06-30T00:51:22.670Z,51.72
2018-06-30T00:53:52.028Z,51.76
2018-06-30T00:56:22.093Z,53.29
2018-06-30T00:58:51.668Z,52.02
2018-06-30T01:01:21.001Z,52.08
2018-06-30T01:03:50.384Z,52.42
2018-06-30T01:06:20.515Z,52.13
2018-06-30T01:08:49.876Z,52.36
2018-06-30T01:11:19.454Z,52.42
2018-06-30T01:13:48.792Z,52.50
2018-06-30T01:16:18.189Z,51.57
2018-06-30T01:18:47.933Z,51.56
2018-06-30T01:21:17.246Z,51.80
2018-06-30T01:23:46.568Z,51.14
2018-06-30T01:26:16.143Z,52.33
2018-06-30T01:28:45.485Z,51.88
2018-06-30T01:31:14.812Z,51.66
2018-06-30T01:33:44.179Z,52.40
2018-06-30T01:36:13.484Z,52.72
2018-06-30T01:38:42.827Z,53.06
2018-06-30T01:41:12.153Z,54.02
2018-06-30T01:43:42.272Z,53.77
2018-06-30T01:46:11.573Z,53.49
2018-06-30T01:48:41.235Z,53.24
2018-06-30T01:51:10.554Z,53.60
2018-06-30T01:53:39.937Z,54.39
2018-06-30T01:56:09.364Z,53.44
2018-06-30T01:58:39.026Z,53.98
2018-06-30T02:01:08.571Z,53.57
2018-06-30T02:03:37.932Z,53.71
2018-06-30T02:06:07.449Z,54.87
2018-06-30T02:08:36.776Z,55.43
2018-06-30T02:11:06.604Z,54.72
2018-06-30T02:13:35.970Z,54.67
2018-06-30T02:16:05.357Z,54.46
2018-06-30T02:18:35.387Z,55.16
2018-06-30T02:21:06.436Z,54.76
2018-06-30T02:23:35.866Z,55.07
2018-06-30T02:26:05.622Z,55.12
2018-06-30T02:28:34.943Z,54.55
2018-06-30T02:31:04.546Z,55.09
2018-06-30T02:33:33.877Z,55.12
2018-06-30T02:36:03.244Z,54.78
2018-06-30T02:38:32.551Z,56.07
2018-06-30T02:41:02.512Z,55.83
2018-06-30T02:43:32.178Z,55.55
2018-06-30T02:46:02.091Z,57.27
2018-06-30T02:48:31.524Z,55.43
2018-06-30T02:51:00.874Z,56.35
2018-06-30T02:53:30.195Z,56.33
2018-06-30T02:56:00.215Z,55.75
2018-06-30T02:58:29.630Z,55.82
2018-06-30T03:00:59.440Z,55.77
2018-06-30T03:03:28.772Z,56.26
2018-06-30T03:05:58.481Z,56.53
2018-06-30T03:08:28.100Z,56.48
2018-06-30T03:10:57.713Z,56.28
2018-06-30T03:13:27.293Z,55.75
2018-06-30T03:15:56.888Z,55.72
2018-06-30T03:18:26.237Z,56.08
2018-06-30T03:20:55.963Z,56.06
2018-06-30T03:23:26.991Z,56.19
2018-06-30T03:25:56.672Z,56.97
2018-06-30T03:28:25.971Z,56.55
2018-06-30T03:30:56.200Z,56.28
2018-06-30T03:33:25.514Z,56.23
2018-06-30T03:35:54.844Z,57.00
2018-06-30T03:38:24.575Z,56.18
2018-06-30T03:40:54.193Z,56.02
2018-06-30T03:43:23.513Z,56.50
2018-06-30T03:45:54.409Z,56.61
2018-06-30T03:48:23.809Z,56.76
2018-06-30T03:50:53.192Z,56.55
2018-06-30T03:53:22.960Z,56.77
2018-06-30T03:55:52.312Z,56.38
2018-06-30T03:58:21.833Z,56.50
2018-06-30T04:00:51.131Z,55.98
2018-06-30T04:03:21.112Z,55.97
2018-06-30T04:05:50.641Z,55.79
2018-06-30T04:08:20.407Z,57.92
2018-06-30T04:10:50.099Z,57.30
2018-06-30T04:13:19.968Z,57.29
2018-06-30T04:15:50.225Z,57.89
2018-06-30T04:18:20.335Z,57.76
2018-06-30T04:20:50.712Z,57.61
2018-06-30T04:23:20.439Z,57.83
2018-06-30T04:25:50.729Z,58.51
2018-06-30T04:28:20.813Z,58.29
2018-06-30T04:30:50.132Z,59.06
2018-06-30T04:33:20.470Z,59.36
2018-06-30T04:35:50.065Z,59.25
2018-06-30T04:38:20.328Z,58.74
2018-06-30T04:40:50.521Z,58.17
2018-06-30T04:43:19.901Z,58.77
2018-06-30T04:45:49.261Z,57.86
2018-06-30T04:48:19.483Z,57.90
2018-06-30T04:50:49.508Z,57.72
2018-06-30T04:53:18.914Z,57.33
2018-06-30T04:55:48.404Z,57.03
2018-06-30T04:58:17.984Z,58.48
2018-06-30T05:00:48.106Z,57.94
2018-06-30T05:03:17.815Z,58.60
2018-06-30T05:05:47.966Z,56.71
2018-06-30T05:08:17.608Z,56.97
2018-06-30T05:10:46.929Z,57.46
2018-06-30T05:13:16.576Z,57.82
2018-06-30T05:15:45.883Z,57.55
2018-06-30T05:18:15.217Z,57.68
2018-06-30T05:20:44.587Z,56.83
2018-06-30T05:23:13.904Z,57.67
2018-06-30T05:25:43.269Z,57.54
2018-06-30T05:28:12.577Z,56.78
2018-06-30T05:30:41.940Z,56.56
2018-06-30T05:33:11.239Z,56.14
2018-06-30T05:35:41.115Z,56.16
2018-06-30T05:38:10.883Z,56.28
2018-06-30T05:40:41.302Z,56.95
2018-06-30T05:43:10.894Z,56.78
2018-06-30T05:45:40.719Z,56.35
2018-06-30T05:48:10.270Z,56.09
2018-06-30T05:50:39.950Z,56.69
2018-06-30T05:53:09.685Z,56.10
2018-06-30T05:55:39.058Z,55.60
2018-06-30T05:58:08.393Z,55.28
2018-06-30T06:00:37.768Z,55.91
2018-06-30T06:03:07.899Z,56.07
2018-06-30T06:05:37.251Z,56.14
2018-06-30T06:08:06.652Z,55.85
2018-06-30T06:10:36.035Z,55.57
2018-06-30T06:13:05.988Z,55.72
2018-06-30T06:15:35.730Z,55.38
2018-06-30T06:18:05.480Z,55.44
2018-06-30T06:20:35.178Z,55.78
2018-06-30T06:23:04.488Z,55.54
2018-06-30T06:25:34.452Z,55.57
2018-06-30T06:28:03.772Z,55.73
2018-06-30T06:30:33.122Z,54.87
2018-06-30T06:33:03.380Z,54.61
2018-06-30T06:35:32.996Z,54.02
2018-06-30T06:38:02.309Z,53.91
2018-06-30T06:40:31.651Z,53.99
2018-06-30T06:43:00.975Z,54.17
2018-06-30T06:45:31.120Z,53.88
2018-06-30T06:48:01.387Z,53.65
2018-06-30T06:50:31.289Z,53.56
2018-06-30T06:53:01.578Z,52.92
2018-06-30T06:55:30.899Z,53.17
2018-06-30T06:58:00.285Z,53.66
2018-06-30T07:00:30.251Z,52.83
2018-06-30T07:03:00.141Z,53.38
2018-06-30T07:05:29.495Z,52.32
2018-06-30T07:07:58.873Z,52.96
2018-06-30T07:10:28.196Z,52.83
2018-06-30T07:12:57.574Z,53.23
2018-06-30T07:15:26.885Z,52.66
2018-06-30T07:17:56.280Z,52.53
2018-06-30T07:20:25.611Z,51.99
2018-06-30T07:22:55.319Z,51.33
2018-06-30T07:25:26.100Z,51.12
2018-06-30T07:27:55.430Z,51.10
2018-06-30T07:30:25.116Z,51.07
2018-06-30T07:32:54.478Z,50.72
2018-06-30T07:35:23.848Z,50.14
2018-06-30T07:37:53.561Z,51.01
2018-06-30T07:40:23.168Z,50.19
2018-06-30T07:42:52.534Z,49.56
2018-06-30T07:45:26.149Z,48.54
2018-06-30T07:47:55.819Z,48.19
2018-06-30T07:50:25.532Z,48.06
2018-06-30T07:52:55.188Z,47.17
2018-06-30T07:55:24.703Z,46.92
2018-06-30T07:57:54.744Z,46.51
2018-06-30T08:00:24.526Z,45.34
2018-06-30T08:02:53.902Z,46.35
2018-06-30T08:05:24.336Z,46.29
2018-06-30T08:07:53.729Z,45.93
2018-06-30T08:10:23.082Z,45.66
2018-06-30T08:12:52.400Z,45.88
2018-06-30T08:15:22.194Z,45.69
2018-06-30T08:17:51.796Z,44.82
2018-06-30T08:20:21.559Z,44.52
2018-06-30T08:22:50.916Z,43.81
2018-06-30T08:25:20.827Z,44.19
2018-06-30T08:27:50.560Z,43.73
2018-06-30T08:30:19.911Z,42.80
2018-06-30T08:32:49.479Z,43.01
2018-06-30T08:35:19.430Z,43.63
2018-06-30T08:37:49.041Z,43.67
2018-06-30T08:40:18.388Z,42.13
2018-06-30T08:42:47.950Z,42.80
2018-06-30T08:45:17.322Z,42.33
2018-06-30T08:47:46.695Z,41.90
2018-06-30T08:50:16.040Z,42.62
2018-06-30T08:52:46.101Z,41.98
2018-06-30T08:55:15.733Z,41.28
2018-06-30T08:57:45.351Z,40.36
2018-06-30T09:00:14.929Z,39.88
2018-06-30T09:02:45.475Z,38.20
2018-06-30T09:05:15.866Z,37.77
2018-06-30T09:07:45.207Z,38.86
2018-06-30T09:10:14.922Z,38.35
2018-06-30T09:12:44.290Z,36.71
2018-06-30T09:15:13.652Z,37.65
2018-06-30T09:17:42.984Z,38.45
2018-06-30T09:20:13.364Z,38.54
2018-06-30T09:22:42.982Z,38.61
2018-06-30T09:25:12.346Z,39.10
2018-06-30T09:27:42.114Z,37.07
2018-06-30T09:30:11.533Z,36.47
2018-06-30T09:32:40.846Z,36.09
2018-06-30T09:35:10.989Z,36.28
2018-06-30T09:37:40.341Z,36.23
2018-06-30T09:40:09.724Z,36.45
2018-06-30T09:42:40.523Z,36.06
2018-06-30T09:45:09.897Z,34.23
2018-06-30T09:47:40.073Z,31.06
2018-06-30T09:50:09.440Z,33.70
2018-06-30T09:52:38.828Z,35.49
2018-06-30T09:55:08.460Z,35.92
2018-06-30T09:57:39.361Z,33.50
2018-06-30T10:00:09.729Z,34.13
2018-06-30T10:02:39.498Z,33.95
2018-06-30T10:05:09.219Z,32.89
2018-06-30T10:07:39.335Z,30.90
2018-06-30T10:10:08.696Z,31.67
2018-06-30T10:12:38.121Z,31.17
2018-06-30T10:15:07.393Z,30.43
2018-06-30T10:17:37.208Z,30.24
2018-06-30T10:20:07.007Z,30.43
2018-06-30T10:22:36.363Z,30.34
2018-06-30T10:25:06.412Z,31.28
2018-06-30T10:27:35.782Z,32.33
2018-06-30T10:30:05.727Z,30.54
2018-06-30T10:32:35.411Z,29.95
2018-06-30T10:35:06.679Z,30.74
2018-06-30T10:37:36.263Z,29.86
2018-06-30T10:40:06.039Z,28.88
2018-06-30T10:42:35.698Z,29.43
2018-06-30T10:45:05.984Z,28.90
2018-06-30T10:47:35.432Z,27.74
2018-06-30T10:50:05.807Z,28.07
2018-06-30T10:52:35.415Z,27.78
2018-06-30T10:55:05.154Z,27.71
2018-06-30T10:57:34.984Z,28.60
2018-06-30T11:00:04.864Z,28.60
2018-06-30T11:02:34.250Z,27.40
2018-06-30T11:05:03.722Z,28.43
2018-06-30T11:07:33.444Z,28.13
2018-06-30T11:10:03.200Z,27.82
2018-06-30T11:12:32.817Z,27.76
2018-06-30T11:15:02.509Z,27.94
2018-06-30T11:17:31.867Z,28.07
2018-06-30T11:20:01.541Z,27.75
2018-06-30T11:22:31.203Z,27.72
2018-06-30T11:25:00.822Z,26.43
2018-06-30T11:27:30.627Z,26.25
2018-06-30T11:30:00.308Z,25.18
2018-06-30T11:32:29.621Z,24.84
2018-06-30T11:34:58.962Z,24.09
2018-06-30T11:37:28.681Z,23.90
2018-06-30T11:39:58.021Z,24.57
2018-06-30T11:42:29.132Z,25.45
2018-06-30T11:44:58.824Z,25.10
2018-06-30T11:47:29.100Z,26.26
2018-06-30T11:49:59.703Z,24.79
2018-06-30T11:52:29.945Z,24.92
2018-06-30T11:55:00.719Z,24.50
2018-06-30T11:57:30.264Z,24.46
2018-06-30T11:59:59.607Z,24.32
2018-06-30T12:02:28.943Z,24.50
2018-06-30T12:04:58.311Z,23.43
2018-06-30T12:07:27.956Z,22.97
2018-06-30T12:09:57.324Z,22.26
2018-06-30T12:12:26.700Z,22.90
2018-06-30T12:14:56.141Z,22.39
2018-06-30T12:17:25.522Z,22.75
2018-06-30T12:19:55.555Z,21.18
2018-06-30T12:22:25.001Z,21.70
2018-06-30T12:24:54.472Z,21.16
2018-06-30T12:27:24.148Z,21.25
2018-06-30T12:29:53.784Z,21.06
2018-06-30T12:32:23.372Z,21.39
2018-06-30T12:34:53.073Z,20.97
2018-06-30T12:37:22.445Z,21.29
2018-06-30T12:39:51.837Z,19.44
2018-06-30T12:42:21.916Z,20.01
2018-06-30T12:44:51.524Z,19.32
2018-06-30T12:47:20.832Z,18.99
2018-06-30T12:49:50.162Z,18.14
2018-06-30T12:52:20.364Z,17.93
2018-06-30T12:54:49.740Z,18.36
2018-06-30T12:57:21.433Z,17.82
2018-06-30T12:59:51.079Z,17.25
2018-06-30T13:02:21.019Z,17.53
2018-06-30T13:04:50.402Z,18.12
2018-06-30T13:07:20.547Z,18.12
2018-06-30T13:09:50.480Z,18.12
2018-06-30T13:12:20.820Z,17.70
2018-06-30T13:14:50.133Z,18.12
2018-06-30T13:17:19.498Z,18.58
2018-06-30T13:19:50.135Z,17.26
2018-06-30T13:22:20.483Z,17.70
2018-06-30T13:24:50.699Z,17.42
2018-06-30T13:27:20.489Z,17.23
2018-06-30T13:29:49.867Z,16.60
2018-06-30T13:32:19.803Z,16.42
2018-06-30T13:34:49.405Z,17.06
2018-06-30T13:37:18.752Z,16.94
2018-06-30T13:39:48.431Z,17.42
2018-06-30T13:42:17.833Z,16.49
2018-06-30T13:44:47.167Z,16.76
2018-06-30T13:47:16.922Z,15.99
2018-06-30T13:49:46.282Z,15.83
2018-06-30T13:52:17.036Z,15.78
2018-06-30T13:54:46.613Z,15.80
2018-06-30T13:57:15.994Z,15.08
2018-06-30T13:59:46.205Z,15.43
2018-06-30T14:02:15.591Z,15.47
2018-06-30T14:04:45.362Z,14.81
2018-06-30T14:07:14.695Z,14.95
2018-06-30T14:09:44.056Z,13.77
2018-06-30T14:12:13.997Z,14.33
2018-06-30T14:14:43.972Z,13.65
2018-06-30T14:17:13.520Z,13.91
2018-06-30T14:19:43.181Z,13.88
2018-06-30T14:22:13.295Z,12.75
2018-06-30T14:24:42.914Z,13.12
2018-06-30T14:27:12.267Z,12.92
2018-06-30T14:29:41.740Z,13.44
2018-06-30T14:32:11.108Z,13.49
2018-06-30T14:34:40.983Z,13.46
2018-06-30T14:37:10.736Z,13.39
2018-06-30T14:39:40.051Z,13.27
2018-06-30T14:42:09.521Z,12.99
2018-06-30T14:44:39.465Z,12.37
2018-06-30T14:47:09.505Z,12.44
2018-06-30T14:49:38.925Z,13.05
2018-06-30T14:52:08.939Z,13.47
2018-06-30T14:54:38.941Z,12.75
2018-06-30T14:57:08.280Z,13.17
2018-06-30T14:59:37.869Z,12.81
2018-06-30T15:02:08.438Z,13.08
2018-06-30T15:04:37.872Z,12.63
2018-06-30T15:07:07.636Z,11.93
2018-06-30T15:09:37.005Z,12.56
2018-06-30T15:12:07.042Z,12.48
2018-06-30T15:14:37.106Z,12.75
2018-06-30T15:17:06.942Z,12.09
2018-06-30T15:19:36.290Z,12.19
2018-06-30T15:22:05.676Z,12.91
2018-06-30T15:24:35.817Z,13.13
2018-06-30T15:27:05.274Z,13.65
2018-06-30T15:29:34.986Z,13.77
2018-06-30T15:32:04.973Z,13.38
2018-06-30T15:34:34.998Z,12.96
2018-06-30T15:37:04.810Z,12.52
2018-06-30T15:39:35.570Z,12.96
2018-06-30T15:42:04.937Z,13.18
2018-06-30T15:44:35.450Z,11.76
2018-06-30T15:47:04.868Z,12.59
2018-06-30T15:49:34.218Z,12.58
2018-06-30T15:52:03.961Z,12.82
2018-06-30T15:54:33.894Z,12.31
2018-06-30T15:57:03.232Z,12.29
2018-06-30T15:59:32.940Z,12.26
2018-06-30T16:02:02.302Z,12.35
2018-06-30T16:04:31.626Z,11.89
2018-06-30T16:07:02.661Z,12.43
2018-06-30T16:09:32.430Z,12.91
2018-06-30T16:12:02.103Z,12.04
2018-06-30T16:14:31.442Z,11.42
2018-06-30T16:17:01.580Z,11.83
2018-06-30T16:19:30.898Z,12.04
2018-06-30T16:22:00.668Z,12.27
2018-06-30T16:24:30.535Z,12.20
2018-06-30T16:26:59.907Z,13.10
2018-06-30T16:29:30.358Z,12.83
2018-06-30T16:32:01.125Z,12.68
2018-06-30T16:34:30.486Z,12.87
2018-06-30T16:37:01.331Z,13.61
2018-06-30T16:39:30.672Z,13.42
2018-06-30T16:42:00.332Z,14.08
2018-06-30T16:44:29.953Z,14.26
2018-06-30T16:46:59.693Z,14.21
2018-06-30T16:49:30.157Z,13.55
2018-06-30T16:51:59.504Z,14.28
2018-06-30T16:54:28.864Z,14.16
2018-06-30T16:56:58.441Z,13.67
2018-06-30T16:59:28.277Z,13.74
2018-06-30T17:01:58.081Z,13.84
2018-06-30T17:04:27.656Z,14.52
2018-06-30T17:06:56.999Z,14.12
2018-06-30T17:09:26.596Z,14.73
2018-06-30T17:11:56.185Z,15.42
2018-06-30T17:14:26.158Z,14.92
2018-06-30T17:16:55.493Z,14.46
2018-06-30T17:19:25.416Z,14.37
2018-06-30T17:21:55.530Z,15.15
2018-06-30T17:24:24.894Z,15.02
2018-06-30T17:26:54.642Z,15.25
2018-06-30T17:29:24.012Z,15.48
2018-06-30T17:31:53.417Z,14.66
2018-06-30T17:34:22.829Z,15.39
2018-06-30T17:36:52.731Z,14.75
2018-06-30T17:39:22.674Z,14.77
2018-06-30T17:41:53.454Z,15.50
2018-06-30T17:44:22.940Z,15.85
2018-06-30T17:46:52.541Z,15.32
2018-06-30T17:49:22.314Z,15.56
2018-06-30T17:51:52.011Z,15.77
2018-06-30T17:54:21.697Z,15.94
2018-06-30T17:56:51.488Z,15.58
2018-06-30T17:59:20.842Z,15.76
2018-06-30T18:01:50.214Z,15.67
2018-06-30T18:04:19.912Z,16.65
2018-06-30T18:06:49.495Z,16.76
2018-06-30T18:09:20.371Z,16.44
2018-06-30T18:11:49.733Z,16.70
2018-06-30T18:14:19.941Z,17.26
2018-06-30T18:16:49.268Z,17.29
2018-06-30T18:19:18.984Z,17.28
2018-06-30T18:21:49.192Z,17.60
2018-06-30T18:24:18.936Z,17.44
2018-06-30T18:26:48.248Z,17.69
2018-06-30T18:29:17.602Z,17.71
2018-06-30T18:31:47.769Z,17.65
2018-06-30T18:34:17.892Z,17.75
2018-06-30T18:36:47.543Z,17.70
2018-06-30T18:39:17.645Z,18.03
2018-06-30T18:41:47.013Z,17.75
2018-06-30T18:44:16.344Z,18.02
2018-06-30T18:46:45.788Z,17.99
2018-06-30T18:49:15.455Z,18.55
2018-06-30T18:51:44.818Z,18.33
2018-06-30T18:54:14.193Z,18.99
2018-06-30T18:56:43.972Z,19.30
2018-06-30T18:59:14.184Z,19.19
2018-06-30T19:01:43.592Z,19.52
2018-06-30T19:04:13.089Z,19.38
2018-06-30T19:06:42.464Z,19.45
2018-06-30T19:09:11.917Z,19.87
2018-06-30T19:11:41.577Z,19.73
2018-06-30T19:14:10.918Z,20.20
2018-06-30T19:16:40.574Z,20.18
2018-06-30T19:19:10.274Z,20.62
2018-06-30T19:21:40.278Z,20.74
2018-06-30T19:24:11.308Z,21.18
2018-06-30T19:26:40.741Z,21.44
2018-06-30T19:29:10.929Z,21.45
2018-06-30T19:31:40.323Z,21.95
2018-06-30T19:34:09.648Z,22.40
2018-06-30T19:36:39.422Z,22.36
2018-06-30T19:39:10.819Z,22.03
2018-06-30T19:41:40.432Z,21.94
2018-06-30T19:44:10.635Z,22.09
2018-06-30T19:46:40.077Z,22.49
2018-06-30T19:49:09.382Z,22.28
2018-06-30T19:51:38.712Z,22.23
2018-06-30T19:54:08.435Z,22.82
2018-06-30T19:56:38.121Z,23.35
2018-06-30T19:59:08.359Z,23.48
2018-06-30T20:01:38.097Z,23.28
2018-06-30T20:04:07.668Z,23.07
2018-06-30T20:06:37.332Z,23.20
2018-06-30T20:09:08.828Z,23.34
2018-06-30T20:11:38.227Z,23.45
2018-06-30T20:14:07.667Z,23.70
2018-06-30T20:16:37.029Z,24.44
2018-06-30T20:19:06.434Z,24.52
2018-06-30T20:21:35.861Z,24.94
2018-06-30T20:24:06.172Z,24.77
2018-06-30T20:26:35.457Z,24.87
2018-06-30T20:29:05.379Z,24.95
2018-06-30T20:31:34.965Z,25.07
2018-06-30T20:34:04.330Z,24.61
2018-06-30T20:36:33.968Z,24.95
2018-06-30T20:39:03.949Z,25.74
2018-06-30T20:41:33.347Z,25.34
2018-06-30T20:44:03.490Z,25.89
2018-06-30T20:46:32.813Z,25.84
2018-06-30T20:49:02.171Z,25.84
2018-06-30T20:51:32.305Z,25.92
2018-06-30T20:54:02.197Z,26.19
2018-06-30T20:56:31.978Z,26.22
2018-06-30T20:59:03.370Z,26.44
2018-06-30T21:01:33.300Z,25.67
2018-06-30T21:04:03.558Z,25.79
2018-06-30T21:06:32.949Z,26.11
2018-06-30T21:09:02.865Z,26.35
2018-06-30T21:11:32.185Z,27.00
2018-06-30T21:14:01.530Z,27.08
2018-06-30T21:16:30.866Z,27.23
2018-06-30T21:19:00.201Z,27.36
2018-06-30T21:21:29.877Z,27.21
2018-06-30T21:23:59.232Z,27.38
2018-06-30T21:26:28.575Z,27.68
2018-06-30T21:28:58.724Z,28.09
2018-06-30T21:31:28.438Z,27.92
2018-06-30T21:33:58.120Z,27.91
2018-06-30T21:36:27.501Z,28.50
2018-06-30T21:38:56.858Z,28.32
2018-06-30T21:41:26.360Z,29.36
2018-06-30T21:43:56.677Z,28.76
2018-06-30T21:46:26.380Z,29.28
2018-06-30T21:48:56.555Z,29.91
2018-06-30T21:51:26.262Z,29.47
2018-06-30T21:53:55.968Z,30.33
2018-06-30T21:56:26.193Z,29.77
2018-06-30T21:58:56.048Z,30.06
2018-06-30T22:01:26.723Z,30.11
2018-06-30T22:03:57.439Z,30.55
2018-06-30T22:06:26.816Z,30.62
2018-06-30T22:08:56.168Z,30.78
2018-06-30T22:11:26.478Z,30.56
2018-06-30T22:13:56.022Z,30.44
2018-06-30T22:16:25.416Z,30.42
2018-06-30T22:18:55.093Z,30.94
2018-06-30T22:21:24.725Z,30.94
2018-06-30T22:23:54.305Z,30.78
2018-06-30T22:26:24.653Z,31.08
2018-06-30T22:28:53.952Z,31.40
2018-06-30T22:31:23.589Z,31.25
2018-06-30T22:33:53.255Z,31.36
2018-06-30T22:36:22.628Z,31.22
2018-06-30T22:38:52.638Z,31.52
2018-06-30T22:41:22.315Z,31.87
2018-06-30T22:43:51.740Z,31.85
2018-06-30T22:46:21.135Z,31.72
2018-06-30T22:48:50.497Z,31.62
2018-06-30T22:51:20.336Z,31.54
2018-06-30T22:53:49.685Z,31.41
2018-06-30T22:56:19.108Z,31.77
2018-06-30T22:58:48.710Z,32.15
2018-06-30T23:01:18.074Z,31.99
2018-06-30T23:03:47.451Z,32.62
2018-06-30T23:06:17.004Z,32.80
2018-06-30T23:08:52.349Z,33.44
2018-06-30T23:11:22.686Z,34.05
2018-06-30T23:13:52.721Z,34.76
2018-06-30T23:16:23.016Z,34.56
2018-06-30T23:18:52.626Z,34.41
2018-06-30T23:21:21.960Z,34.96
2018-06-30T23:23:51.323Z,34.65
2018-06-30T23:26:27.364Z,35.01
2018-06-30T23:28:56.704Z,34.88
2018-06-30T23:31:26.033Z,35.02
2018-06-30T23:33:55.392Z,35.05
2018-06-30T23:36:24.735Z,35.13
2018-06-30T23:38:54.367Z,35.10
2018-06-30T23:41:24.088Z,35.67
2018-06-30T23:43:54.456Z,35.55
2018-06-30T23:46:23.807Z,35.24
2018-06-30T23:48:53.125Z,35.23
2018-06-30T23:51:22.822Z,35.68
2018-06-30T23:53:52.505Z,35.94
2018-06-30T23:56:22.616Z,36.22
2018-06-30T23:58:53.349Z,36.12
